createdAt,value
2018-04-07T00:00:09.437Z,97.60
2018-04-07T00:02:37.105Z,97.80
2018-04-07T00:05:04.744Z,97.80
2018-04-07T00:07:32.348Z,97.90
2018-04-07T00:10:00.096Z,98.10
2018-04-07T00:12:27.714Z,98.00
2018-04-07T00:14:55.345Z,98.00
2018-04-07T00:17:23.761Z,98.10
2018-04-07T00:19:51.433Z,98.10
2018-04-07T00:22:19.051Z,97.80
2018-04-07T00:24:47.483Z,97.90
2018-04-07T00:27:15.099Z,97.90
2018-04-07T00:29:42.846Z,97.90
2018-04-07T00:32:11.262Z,98.00
2018-04-07T00:34:38.935Z,98.10
2018-04-07T00:37:06.631Z,98.20
2018-04-07T00:39:34.282Z,98.30
2018-04-07T00:42:01.889Z,98.30
2018-04-07T00:44:29.538Z,98.30
2018-04-07T00:46:57.196Z,98.40
2018-04-07T00:49:24.841Z,98.70
2018-04-07T00:51:52.472Z,98.40
2018-04-07T00:54:20.206Z,98.30
2018-04-07T00:56:47.972Z,98.30
2018-04-07T00:59:15.768Z,98.30
2018-04-07T01:01:43.444Z,98.40
2018-04-07T01:04:11.101Z,98.30
2018-04-07T01:06:38.758Z,98.20
2018-04-07T01:09:06.378Z,98.30
2018-04-07T01:11:35.555Z,98.70
2018-04-07T01:14:03.203Z,98.70
2018-04-07T01:16:31.603Z,98.70
2018-04-07T01:19:00.482Z,98.90
2018-04-07T01:21:28.144Z,98.90
2018-04-07T01:23:55.781Z,98.70
2018-04-07T01:26:23.418Z,98.80
2018-04-07T01:28:51.020Z,99.20
2018-04-07T01:31:18.683Z,99.40
2018-04-07T01:33:46.328Z,99.40
2018-04-07T01:36:13.986Z,99.20
2018-04-07T01:38:41.638Z,99.10
2018-04-07T01:41:09.421Z,99.20
2018-04-07T01:43:37.105Z,99.10
2018-04-07T01:46:04.761Z,99.70
2018-04-07T01:48:32.452Z,99.40
2018-04-07T01:51:00.905Z,99.40
2018-04-07T01:53:29.356Z,99.50
2018-04-07T01:55:57.012Z,99.40
2018-04-07T01:58:24.648Z,99.50
2018-04-07T02:00:53.069Z,99.20
2018-04-07T02:03:20.737Z,99.20
2018-04-07T02:05:48.480Z,99.20
2018-04-07T02:08:16.843Z,99.70
2018-04-07T02:10:45.214Z,99.50
2018-04-07T02:13:13.713Z,99.70
2018-04-07T02:15:41.384Z,99.70
2018-04-07T02:18:09.013Z,99.50
2018-04-07T02:20:37.454Z,99.40
2018-04-07T02:23:05.061Z,99.40
2018-04-07T02:25:33.465Z,99.40
2018-04-07T02:28:01.115Z,99.40
2018-04-07T02:30:28.893Z,99.60
2018-04-07T02:32:56.769Z,99.50
2018-04-07T02:35:25.119Z,99.90
2018-04-07T02:37:53.552Z,99.90
2018-04-07T02:40:21.178Z,99.90
2018-04-07T02:42:48.900Z,99.90
2018-04-07T02:45:16.586Z,99.90
2018-04-07T02:47:44.259Z,99.90
2018-04-07T02:50:11.940Z,99.90
2018-04-07T02:52:39.601Z,99.90
2018-04-07T02:55:07.294Z,99.90
2018-04-07T02:57:34.900Z,99.90
2018-04-07T03:00:03.337Z,99.90
2018-04-07T03:02:31.013Z,99.90
2018-04-07T03:04:58.674Z,99.90
2018-04-07T03:07:26.363Z,99.90
2018-04-07T03:09:54.744Z,99.90
2018-04-07T03:12:23.190Z,99.90
2018-04-07T03:14:50.890Z,99.90
2018-04-07T03:17:19.297Z,99.90
2018-04-07T03:19:46.945Z,99.90
2018-04-07T03:22:15.331Z,99.90
2018-04-07T03:24:42.963Z,99.90
2018-04-07T03:27:11.387Z,99.90
2018-04-07T03:29:38.992Z,99.90
2018-04-07T03:32:06.677Z,99.90
2018-04-07T03:34:35.090Z,99.90
2018-04-07T03:37:02.755Z,99.90
2018-04-07T03:39:30.372Z,99.90
2018-04-07T03:41:58.738Z,99.90
2018-04-07T03:44:26.396Z,99.90
2018-04-07T03:46:54.072Z,99.90
2018-04-07T03:49:22.499Z,99.90
2018-04-07T03:51:50.160Z,99.90
2018-04-07T03:54:17.838Z,99.90
2018-04-07T03:56:45.480Z,99.90
2018-04-07T03:59:13.095Z,99.90
2018-04-07T04:01:40.763Z,99.90
2018-04-07T04:04:08.518Z,99.90
2018-04-07T04:06:36.182Z,99.90
2018-04-07T04:09:03.966Z,99.90
2018-04-07T04:11:32.405Z,99.90
2018-04-07T04:14:00.115Z,99.90
2018-04-07T04:16:28.518Z,99.90
2018-04-07T04:18:56.204Z,99.90
2018-04-07T04:21:24.667Z,99.90
2018-04-07T04:23:52.316Z,99.90
2018-04-07T04:26:19.980Z,99.90
2018-04-07T04:28:48.093Z,99.90
2018-04-07T04:31:15.815Z,99.90
2018-04-07T04:33:43.478Z,99.90
2018-04-07T04:36:11.138Z,99.90
2018-04-07T04:38:38.827Z,99.90
2018-04-07T04:41:06.587Z,99.90
2018-04-07T04:43:34.229Z,99.90
2018-04-07T04:46:02.847Z,99.90
2018-04-07T04:48:30.499Z,99.90
2018-04-07T04:50:58.114Z,99.90
2018-04-07T04:53:26.594Z,99.90
2018-04-07T04:55:54.326Z,99.90
2018-04-07T04:58:21.970Z,99.90
2018-04-07T05:00:49.678Z,99.90
2018-04-07T05:03:17.332Z,99.90
2018-04-07T05:05:45.732Z,99.90
2018-04-07T05:08:13.379Z,99.90
2018-04-07T05:10:41.036Z,99.90
2018-04-07T05:13:08.702Z,99.90
2018-04-07T05:15:36.335Z,99.90
2018-04-07T05:18:04.070Z,99.90
2018-04-07T05:20:31.688Z,99.90
2018-04-07T05:22:59.366Z,99.90
2018-04-07T05:25:27.050Z,99.90
2018-04-07T05:27:54.634Z,99.90
2018-04-07T05:30:22.214Z,99.90
2018-04-07T05:32:49.853Z,99.90
2018-04-07T05:35:17.521Z,99.90
2018-04-07T05:37:45.168Z,99.90
2018-04-07T05:40:12.949Z,99.90
2018-04-07T05:42:40.534Z,99.90
2018-04-07T05:45:08.178Z,99.90
2018-04-07T05:47:36.668Z,99.20
2018-04-07T05:50:05.865Z,98.90
2018-04-07T05:52:33.500Z,98.90
2018-04-07T05:55:01.150Z,98.70
2018-04-07T05:57:28.811Z,98.10
2018-04-07T05:59:57.217Z,98.10
2018-04-07T06:02:24.878Z,98.00
2018-04-07T06:04:52.512Z,96.90
2018-04-07T06:07:20.177Z,96.30
2018-04-07T06:09:47.803Z,95.70
2018-04-07T06:12:16.161Z,95.00
2018-04-07T06:14:44.319Z,95.00
2018-04-07T06:17:11.985Z,94.70
2018-04-07T06:19:39.682Z,94.30
2018-04-07T06:22:08.120Z,94.80
2018-04-07T06:24:35.840Z,94.80
2018-04-07T06:27:03.417Z,95.40
2018-04-07T06:29:31.044Z,95.70
2018-04-07T06:31:58.666Z,96.50
2018-04-07T06:34:26.265Z,97.60
2018-04-07T06:36:53.862Z,97.90
2018-04-07T06:39:21.544Z,98.00
2018-04-07T06:41:49.169Z,98.10
2018-04-07T06:44:17.550Z,99.10
2018-04-07T06:46:45.921Z,98.90
2018-04-07T06:49:14.285Z,99.00
2018-04-07T06:51:42.650Z,99.30
2018-04-07T06:54:10.249Z,99.30
2018-04-07T06:56:37.909Z,99.20
2018-04-07T06:59:05.633Z,99.30
2018-04-07T07:01:33.261Z,98.90
2018-04-07T07:04:00.974Z,99.30
2018-04-07T07:06:29.347Z,99.70
2018-04-07T07:08:57.110Z,99.30
2018-04-07T07:11:25.596Z,99.30
2018-04-07T07:13:53.218Z,99.30
2018-04-07T07:16:20.920Z,99.00
2018-04-07T07:18:49.443Z,99.00
2018-04-07T07:21:17.076Z,99.00
2018-04-07T07:23:45.431Z,98.90
2018-04-07T07:26:13.299Z,98.90
2018-04-07T07:28:40.987Z,98.80
2018-04-07T07:31:09.606Z,98.80
2018-04-07T07:33:37.289Z,98.70
2018-04-07T07:36:04.959Z,98.80
2018-04-07T07:38:34.343Z,98.80
2018-04-07T07:41:02.082Z,98.50
2018-04-07T07:43:29.721Z,98.30
2018-04-07T07:45:58.176Z,98.80
2018-04-07T07:48:25.829Z,98.50
2018-04-07T07:50:53.551Z,98.60
2018-04-07T07:53:21.329Z,98.50
2018-04-07T07:55:48.933Z,98.40
2018-04-07T07:58:16.629Z,98.70
2018-04-07T08:00:44.226Z,98.70
2018-04-07T08:03:13.115Z,98.40
2018-04-07T08:05:41.646Z,98.60
2018-04-07T08:08:09.499Z,98.80
2018-04-07T08:10:37.136Z,98.30
2018-04-07T08:13:04.789Z,98.50
2018-04-07T08:15:32.599Z,98.30
2018-04-07T08:18:00.368Z,98.50
2018-04-07T08:20:27.996Z,98.50
2018-04-07T08:22:56.436Z,98.90
2018-04-07T08:25:24.841Z,98.60
2018-04-07T08:27:52.494Z,98.60
2018-04-07T08:30:20.090Z,98.70
2018-04-07T08:32:47.911Z,98.30
2018-04-07T08:35:16.401Z,98.60
2018-04-07T08:37:44.180Z,98.40
2018-04-07T08:40:12.759Z,98.80
2018-04-07T08:42:40.398Z,98.30
2018-04-07T08:45:08.038Z,98.50
2018-04-07T08:47:36.438Z,98.50
2018-04-07T08:50:04.079Z,98.50
2018-04-07T08:52:32.541Z,98.60
2018-04-07T08:55:00.902Z,98.50
2018-04-07T08:57:29.502Z,98.40
2018-04-07T08:59:57.208Z,98.40
2018-04-07T09:02:25.706Z,98.50
2018-04-07T09:04:53.347Z,98.50
2018-04-07T09:07:20.949Z,98.50
2018-04-07T09:09:48.592Z,98.00
2018-04-07T09:12:16.269Z,96.60
2018-04-07T09:14:43.881Z,96.70
2018-04-07T09:17:11.463Z,96.60
2018-04-07T09:19:39.091Z,96.90
2018-04-07T09:22:07.529Z,95.20
2018-04-07T09:24:35.168Z,95.20
2018-04-07T09:27:02.778Z,94.90
2018-04-07T09:29:30.399Z,94.40
2018-04-07T09:31:59.555Z,94.40
2018-04-07T09:34:27.997Z,94.20
2018-04-07T09:36:55.633Z,94.20
2018-04-07T09:39:23.223Z,93.20
2018-04-07T09:41:50.829Z,92.90
2018-04-07T09:44:18.442Z,92.00
2018-04-07T09:46:46.839Z,91.80
2018-04-07T09:49:14.482Z,91.80
2018-04-07T09:51:42.181Z,91.60
2018-04-07T09:54:09.827Z,91.60
2018-04-07T09:56:37.471Z,90.90
2018-04-07T09:59:05.172Z,91.30
2018-04-07T10:01:36.182Z,90.90
2018-04-07T10:04:04.678Z,91.10
2018-04-07T10:06:34.036Z,90.60
2018-04-07T10:09:01.653Z,90.90
2018-04-07T10:11:30.075Z,90.10
2018-04-07T10:13:59.347Z,90.00
2018-04-07T10:16:26.965Z,89.20
2018-04-07T10:18:54.592Z,89.50
2018-04-07T10:21:22.272Z,88.70
2018-04-07T10:23:49.881Z,89.00
2018-04-07T10:26:18.540Z,87.80
2018-04-07T10:28:46.357Z,87.70
2018-04-07T10:31:13.962Z,88.00
2018-04-07T10:33:42.319Z,89.00
2018-04-07T10:36:10.015Z,89.10
2018-04-07T10:38:37.786Z,88.00
2018-04-07T10:41:07.338Z,88.00
2018-04-07T10:43:35.072Z,87.80
2018-04-07T10:46:02.684Z,87.30
2018-04-07T10:48:32.154Z,87.70
2018-04-07T10:51:00.788Z,87.70
2018-04-07T10:53:28.454Z,86.50
2018-04-07T10:55:56.122Z,86.00
2018-04-07T10:58:23.734Z,87.40
2018-04-07T11:00:51.401Z,85.70
2018-04-07T11:03:19.701Z,86.20
2018-04-07T11:05:47.278Z,85.00
2018-04-07T11:08:15.106Z,84.00
2018-04-07T11:10:43.489Z,85.00
2018-04-07T11:13:11.148Z,85.00
2018-04-07T11:15:38.983Z,82.90
2018-04-07T11:18:07.379Z,82.70
2018-04-07T11:20:35.080Z,82.60
2018-04-07T11:23:02.721Z,82.20
2018-04-07T11:25:30.367Z,81.60
2018-04-07T11:27:58.018Z,80.50
2018-04-07T11:30:25.677Z,82.10
2018-04-07T11:32:54.205Z,79.90
2018-04-07T11:35:21.836Z,79.80
2018-04-07T11:37:50.206Z,79.40
2018-04-07T11:40:17.855Z,79.40
2018-04-07T11:42:46.244Z,78.10
2018-04-07T11:45:13.913Z,78.00
2018-04-07T11:47:41.553Z,77.50
2018-04-07T11:50:10.012Z,78.80
2018-04-07T11:52:37.683Z,78.70
2018-04-07T11:55:05.313Z,76.60
2018-04-07T11:57:32.994Z,77.90
2018-04-07T12:00:00.597Z,76.90
2018-04-07T12:02:28.311Z,75.50
2018-04-07T12:04:56.357Z,75.10
2018-04-07T12:07:23.995Z,74.40
2018-04-07T12:09:51.750Z,74.90
2018-04-07T12:12:19.351Z,75.30
2018-04-07T12:14:47.786Z,74.80
2018-04-07T12:17:16.154Z,75.10
2018-04-07T12:19:43.761Z,75.00
2018-04-07T12:22:11.510Z,75.00
2018-04-07T12:24:39.216Z,75.40
2018-04-07T12:27:07.374Z,73.70
2018-04-07T12:29:35.957Z,73.30
2018-04-07T12:32:03.761Z,71.10
2018-04-07T12:34:32.136Z,72.80
2018-04-07T12:36:59.894Z,71.80
2018-04-07T12:39:27.594Z,72.10
2018-04-07T12:41:55.217Z,72.70
2018-04-07T12:44:22.909Z,64.60
2018-04-07T12:46:52.211Z,68.40
2018-04-07T12:49:20.684Z,69.00
2018-04-07T12:51:48.313Z,69.00
2018-04-07T12:54:15.905Z,68.60
2018-04-07T12:56:43.559Z,63.30
2018-04-07T12:59:11.962Z,61.40
2018-04-07T13:01:39.643Z,61.40
2018-04-07T13:04:07.299Z,60.50
2018-04-07T13:06:35.017Z,60.40
2018-04-07T13:09:02.708Z,60.90
2018-04-07T13:11:31.117Z,60.30
2018-04-07T13:13:58.715Z,60.30
2018-04-07T13:16:26.372Z,60.30
2018-04-07T13:18:54.882Z,58.80
2018-04-07T13:21:23.358Z,57.90
2018-04-07T13:23:51.798Z,57.80
2018-04-07T13:26:19.485Z,57.50
2018-04-07T13:28:47.100Z,57.90
2018-04-07T13:31:14.832Z,57.80
2018-04-07T13:33:43.260Z,57.40
2018-04-07T13:36:11.450Z,57.30
2018-04-07T13:38:39.227Z,57.20
2018-04-07T13:41:07.637Z,57.20
2018-04-07T13:43:35.236Z,57.20
2018-04-07T13:46:03.767Z,57.20
2018-04-07T13:48:31.657Z,55.50
2018-04-07T13:50:59.269Z,55.40
2018-04-07T13:53:26.903Z,55.00
2018-04-07T13:55:54.537Z,54.60
2018-04-07T13:58:23.111Z,54.90
2018-04-07T14:00:50.732Z,54.30
2018-04-07T14:03:18.416Z,53.70
2018-04-07T14:05:46.804Z,52.00
2018-04-07T14:08:14.505Z,52.00
2018-04-07T14:10:42.186Z,51.80
2018-04-07T14:13:09.720Z,52.30
2018-04-07T14:15:37.414Z,52.10
2018-04-07T14:18:05.083Z,52.30
2018-04-07T14:20:32.726Z,51.50
2018-04-07T14:23:00.363Z,53.10
2018-04-07T14:25:28.787Z,50.90
2018-04-07T14:27:56.490Z,50.80
2018-04-07T14:30:24.082Z,52.30
2018-04-07T14:32:51.775Z,50.80
2018-04-07T14:35:19.533Z,50.30
2018-04-07T14:37:47.370Z,50.90
2018-04-07T14:40:15.447Z,51.30
2018-04-07T14:42:44.050Z,49.80
2018-04-07T14:45:11.728Z,49.90
2018-04-07T14:47:39.315Z,49.90
2018-04-07T14:50:07.717Z,49.20
2018-04-07T14:52:35.391Z,49.20
2018-04-07T14:55:03.117Z,48.50
2018-04-07T14:57:31.723Z,48.60
2018-04-07T15:00:00.187Z,47.40
2018-04-07T15:02:28.558Z,47.60
2018-04-07T15:04:56.977Z,47.60
2018-04-07T15:07:24.623Z,47.20
2018-04-07T15:09:53.014Z,47.70
2018-04-07T15:12:20.664Z,47.60
2018-04-07T15:14:49.178Z,46.20
2018-04-07T15:17:16.804Z,46.20
2018-04-07T15:19:44.742Z,46.10
2018-04-07T15:22:12.374Z,45.80
2018-04-07T15:24:40.042Z,45.60
2018-04-07T15:27:07.602Z,44.90
2018-04-07T15:29:35.364Z,45.10
2018-04-07T15:32:03.034Z,44.80
2018-04-07T15:34:30.851Z,45.30
2018-04-07T15:36:59.246Z,45.50
2018-04-07T15:39:26.878Z,45.50
2018-04-07T15:41:54.616Z,45.70
2018-04-07T15:44:22.270Z,45.80
2018-04-07T15:46:49.889Z,44.50
2018-04-07T15:49:17.542Z,43.80
2018-04-07T15:51:45.230Z,43.50
2018-04-07T15:54:12.832Z,43.90
2018-04-07T15:56:40.652Z,44.80
2018-04-07T15:59:08.247Z,44.10
2018-04-07T16:01:36.648Z,44.20
2018-04-07T16:04:05.007Z,45.40
2018-04-07T16:06:32.702Z,44.80
2018-04-07T16:09:01.137Z,44.50
2018-04-07T16:11:28.782Z,44.40
2018-04-07T16:13:56.576Z,44.10
2018-04-07T16:16:24.151Z,43.00
2018-04-07T16:18:53.599Z,42.60
2018-04-07T16:21:21.270Z,42.40
2018-04-07T16:23:48.855Z,42.90
2018-04-07T16:26:16.465Z,43.10
2018-04-07T16:28:44.894Z,45.10
2018-04-07T16:31:12.861Z,45.10
2018-04-07T16:33:40.495Z,46.00
2018-04-07T16:36:08.108Z,46.60
2018-04-07T16:38:35.757Z,46.80
2018-04-07T16:41:03.355Z,47.00
2018-04-07T16:43:31.036Z,47.10
2018-04-07T16:45:58.675Z,47.20
2018-04-07T16:48:27.064Z,47.80
2018-04-07T16:50:54.687Z,47.70
2018-04-07T16:53:22.311Z,47.80
2018-04-07T16:55:49.933Z,48.00
2018-04-07T16:58:17.700Z,48.20
2018-04-07T17:00:45.385Z,48.30
2018-04-07T17:03:13.085Z,48.60
2018-04-07T17:05:40.701Z,48.50
2018-04-07T17:08:09.114Z,49.30
2018-04-07T17:10:36.711Z,49.30
2018-04-07T17:13:04.551Z,49.10
2018-04-07T17:15:32.221Z,49.60
2018-04-07T17:17:59.855Z,49.90
2018-04-07T17:20:27.493Z,50.20
2018-04-07T17:22:55.915Z,50.70
2018-04-07T17:25:23.485Z,50.60
2018-04-07T17:27:51.292Z,51.00
2018-04-07T17:30:20.377Z,51.60
2018-04-07T17:32:48.078Z,51.60
2018-04-07T17:35:15.836Z,51.70
2018-04-07T17:37:43.589Z,52.20
2018-04-07T17:40:12.211Z,52.20
2018-04-07T17:42:39.778Z,52.20
2018-04-07T17:45:07.491Z,52.90
2018-04-07T17:47:35.846Z,53.50
2018-04-07T17:50:03.603Z,53.50
2018-04-07T17:52:31.233Z,53.60
2018-04-07T17:54:59.083Z,54.30
2018-04-07T17:57:26.737Z,54.30
2018-04-07T17:59:54.360Z,54.50
2018-04-07T18:02:22.027Z,54.60
2018-04-07T18:04:49.685Z,54.90
2018-04-07T18:07:17.270Z,56.10
2018-04-07T18:09:44.985Z,55.50
2018-04-07T18:12:12.558Z,55.90
2018-04-07T18:14:40.224Z,56.40
2018-04-07T18:17:07.809Z,57.00
2018-04-07T18:19:36.796Z,57.50
2018-04-07T18:22:05.182Z,58.50
2018-04-07T18:24:32.822Z,57.90
2018-04-07T18:27:00.630Z,58.50
2018-04-07T18:29:28.298Z,58.80
2018-04-07T18:31:55.911Z,59.20
2018-04-07T18:34:24.588Z,59.50
2018-04-07T18:36:53.049Z,59.50
2018-04-07T18:39:20.691Z,60.50
2018-04-07T18:41:48.333Z,60.00
2018-04-07T18:44:16.785Z,59.90
2018-04-07T18:46:44.387Z,59.80
2018-04-07T18:49:12.073Z,60.70
2018-04-07T18:51:39.708Z,62.10
2018-04-07T18:54:07.313Z,63.10
2018-04-07T18:56:34.902Z,64.00
2018-04-07T18:59:02.529Z,63.20
2018-04-07T19:01:30.190Z,64.00
2018-04-07T19:03:58.830Z,65.20
2018-04-07T19:06:26.448Z,65.20
2018-04-07T19:08:54.161Z,64.80
2018-04-07T19:11:21.836Z,64.20
2018-04-07T19:13:49.450Z,64.20
2018-04-07T19:16:17.053Z,66.30
2018-04-07T19:18:44.676Z,68.90
2018-04-07T19:21:12.442Z,68.70
2018-04-07T19:23:40.033Z,68.50
2018-04-07T19:26:08.387Z,69.60
2018-04-07T19:28:36.030Z,70.20
2018-04-07T19:31:03.589Z,70.80
2018-04-07T19:33:31.247Z,70.70
2018-04-07T19:35:58.876Z,71.50
2018-04-07T19:38:26.486Z,73.30
2018-04-07T19:40:54.132Z,74.10
2018-04-07T19:43:21.732Z,74.20
2018-04-07T19:45:50.109Z,73.90
2018-04-07T19:48:17.759Z,73.80
2018-04-07T19:50:46.860Z,72.60
2018-04-07T19:53:15.282Z,72.50
2018-04-07T19:55:43.136Z,72.40
2018-04-07T19:58:10.779Z,72.20
2018-04-07T20:00:38.382Z,73.60
2018-04-07T20:03:06.015Z,75.30
2018-04-07T20:05:33.634Z,74.40
2018-04-07T20:08:01.245Z,74.50
2018-04-07T20:10:28.915Z,73.80
2018-04-07T20:12:56.534Z,76.70
2018-04-07T20:15:24.950Z,77.90
2018-04-07T20:17:52.564Z,77.70
2018-04-07T20:20:20.230Z,77.30
2018-04-07T20:22:48.623Z,77.40
2018-04-07T20:25:17.006Z,79.30
2018-04-07T20:27:44.680Z,79.20
2018-04-07T20:30:12.265Z,80.70
2018-04-07T20:32:39.877Z,80.90
2018-04-07T20:35:08.303Z,78.80
2018-04-07T20:37:35.899Z,78.70
2018-04-07T20:40:03.506Z,79.20
2018-04-07T20:42:31.249Z,78.60
2018-04-07T20:44:58.915Z,78.60
2018-04-07T20:47:26.574Z,79.90
2018-04-07T20:49:54.949Z,81.70
2018-04-07T20:52:23.330Z,81.30
2018-04-07T20:54:51.747Z,80.50
2018-04-07T20:57:19.348Z,80.40
2018-04-07T20:59:46.959Z,81.70
2018-04-07T21:02:14.554Z,82.70
2018-04-07T21:04:42.996Z,84.50
2018-04-07T21:07:11.565Z,84.70
2018-04-07T21:09:39.184Z,84.30
2018-04-07T21:12:06.791Z,84.50
2018-04-07T21:14:34.364Z,83.40
2018-04-07T21:17:02.003Z,84.10
2018-04-07T21:19:29.656Z,84.90
2018-04-07T21:21:57.335Z,84.30
2018-04-07T21:24:24.956Z,83.90
2018-04-07T21:26:52.623Z,84.40
2018-04-07T21:29:20.288Z,84.80
2018-04-07T21:31:48.739Z,86.00
2018-04-07T21:34:16.353Z,86.00
2018-04-07T21:36:44.737Z,85.30
2018-04-07T21:39:12.339Z,85.20
2018-04-07T21:41:40.086Z,85.20
2018-04-07T21:44:07.745Z,85.30
2018-04-07T21:46:35.399Z,85.20
2018-04-07T21:49:03.020Z,85.30
2018-04-07T21:51:30.647Z,85.70
2018-04-07T21:53:58.278Z,86.00
2018-04-07T21:56:25.887Z,85.80
2018-04-07T21:58:54.372Z,85.80
2018-04-07T22:01:21.976Z,85.90
2018-04-07T22:03:49.566Z,87.40
2018-04-07T22:06:17.285Z,89.80
2018-04-07T22:08:44.998Z,90.20
2018-04-07T22:11:12.656Z,89.60
2018-04-07T22:13:40.262Z,90.00
2018-04-07T22:16:08.644Z,89.60
2018-04-07T22:18:36.308Z,90.10
2018-04-07T22:21:03.902Z,90.00
2018-04-07T22:23:31.573Z,89.30
2018-04-07T22:25:59.220Z,89.70
2018-04-07T22:28:26.851Z,89.70
2018-04-07T22:30:55.305Z,90.20
2018-04-07T22:33:23.143Z,90.20
2018-04-07T22:35:50.800Z,90.00
2018-04-07T22:38:18.428Z,90.80
2018-04-07T22:40:46.098Z,91.20
2018-04-07T22:43:13.696Z,90.60
2018-04-07T22:45:41.303Z,91.10
2018-04-07T22:48:08.969Z,91.30
2018-04-07T22:50:37.648Z,91.70
2018-04-07T22:53:06.069Z,91.40
2018-04-07T22:55:33.678Z,91.40
2018-04-07T22:58:01.369Z,91.00
2018-04-07T23:00:29.023Z,91.90
2018-04-07T23:02:57.455Z,91.90
2018-04-07T23:05:25.064Z,91.90
2018-04-07T23:07:53.456Z,93.30
2018-04-07T23:10:21.055Z,93.30
2018-04-07T23:12:48.683Z,93.90
2018-04-07T23:15:16.286Z,94.10
2018-04-07T23:17:44.035Z,94.20
2018-04-07T23:20:11.828Z,93.90
2018-04-07T23:22:39.444Z,94.50
2018-04-07T23:25:07.157Z,95.00
2018-04-07T23:27:34.768Z,95.20
2018-04-07T23:30:02.432Z,95.20
2018-04-07T23:32:30.093Z,96.10
2018-04-07T23:34:57.724Z,96.00
2018-04-07T23:37:25.278Z,96.20
2018-04-07T23:39:52.871Z,96.20
2018-04-07T23:42:20.632Z,95.70
2018-04-07T23:44:48.297Z,96.40
2018-04-07T23:47:15.958Z,96.90
2018-04-07T23:49:43.543Z,96.10
2018-04-07T23:52:11.954Z,97.30
2018-04-07T23:54:40.514Z,97.30
2018-04-07T23:57:09.012Z,97.60
2018-04-07T23:59:36.642Z,97.90
